Time;durP1;ratioP1;P1;durP2;ratioP2;P2;SDS_P1;SDS_P2;PMS_P1;PMS_P2;Temp;Humidity;BMP_temperature;BMP_pressure;BME280_temperature;BME280_humidity;BME280_pressure;Samples;Min_cycle;Max_cycle;Signal;HPM_P1;HPM_P2
2022/12/03 00:02:20;;;;;;;20.05;13.10;;;;;;;4.13;71.18;96729.19;5073742;28;20052;-77
2022/12/03 00:04:48;;;;;;;25.00;13.50;;;;;;;4.10;70.89;96724.28;5073567;28;20048;-77
2022/12/03 00:07:15;;;;;;;24.20;13.63;;;;;;;4.07;70.96;96724.56;5073626;28;20051;-78
2022/12/03 00:09:43;;;;;;;19.65;12.85;;;;;;;4.06;71.09;96735.84;5073485;28;20048;-78
2022/12/03 00:12:12;;;;;;;22.92;13.63;;;;;;;4.05;71.08;96731.66;5073498;28;20056;-77
2022/12/03 00:14:39;;;;;;;21.75;13.55;;;;;;;4.04;71.33;96732.59;5073344;28;20422;-78
2022/12/03 00:17:11;;;;;;;22.63;13.98;;;;;;;4.01;71.39;96732.88;5111742;22;20109;-78
2022/12/03 00:19:39;;;;;;;24.10;14.35;;;;;;;4.01;71.61;96732.06;5092379;28;20148;-80
2022/12/03 00:22:06;;;;;;;22.55;13.95;;;;;;;4.00;71.24;96731.25;5093190;28;20068;-79
2022/12/03 00:24:34;;;;;;;21.90;13.27;;;;;;;4.01;71.24;96735.44;5093383;28;20540;-78
2022/12/03 00:27:01;;;;;;;24.92;14.73;;;;;;;4.01;71.35;96732.88;5093176;28;20052;-79
2022/12/03 00:29:30;;;;;;;23.63;14.20;;;;;;;4.02;71.39;96724.16;5092904;28;20055;-79
2022/12/03 00:31:58;;;;;;;24.38;15.15;;;;;;;4.01;71.60;96727.69;5092713;28;20044;-79
2022/12/03 00:34:25;;;;;;;23.88;14.68;;;;;;;4.01;71.83;96721.72;5092874;28;20044;-79
2022/12/03 00:36:53;;;;;;;25.13;15.07;;;;;;;4.02;71.79;96723.34;5092626;28;20048;-78
2022/12/03 00:39:21;;;;;;;25.42;14.15;;;;;;;4.05;71.95;96725.69;5092597;28;20508;-78
2022/12/03 00:41:48;;;;;;;28.42;14.95;;;;;;;4.04;71.53;96727.41;5092895;28;20059;-78
2022/12/03 00:44:16;;;;;;;27.48;15.98;;;;;;;4.05;71.70;96731.66;5092951;28;20059;-78
2022/12/03 00:46:45;;;;;;;26.55;14.57;;;;;;;4.04;72.09;96727.41;5092651;28;20390;-79
2022/12/03 00:49:12;;;;;;;27.98;15.27;;;;;;;4.07;72.07;96731.50;5092531;28;20075;-79
2022/12/03 00:51:40;;;;;;;25.42;13.32;;;;;;;4.05;71.75;96723.91;5093389;28;20052;-80
2022/12/03 00:54:08;;;;;;;26.88;13.85;;;;;;;4.02;72.08;96733.66;5095275;28;20448;-79
2022/12/03 00:56:35;;;;;;;31.75;16.63;;;;;;;4.00;72.10;96726.09;5093694;28;20052;-79
2022/12/03 00:59:03;;;;;;;28.50;15.55;;;;;;;3.98;71.79;96728.00;5094370;28;20063;-79
2022/12/03 01:01:30;;;;;;;31.17;15.43;;;;;;;3.95;71.76;96732.59;5093927;28;20056;-80
2022/12/03 01:03:59;;;;;;;28.75;14.75;;;;;;;3.91;72.29;96732.06;5093217;28;20505;-80
2022/12/03 01:06:27;;;;;;;31.20;16.35;;;;;;;3.86;71.86;96731.66;5092472;28;20055;-78
2022/12/03 01:08:54;;;;;;;30.60;15.98;;;;;;;3.83;72.59;96735.31;5091681;28;20059;-78
2022/12/03 01:11:37;;;;;;;32.70;17.05;;;;;;;3.84;72.66;96733.56;5107093;28;20052;-78
2022/12/03 01:14:05;;;;;;;26.45;14.30;;;;;;;3.83;72.25;96734.53;5110941;28;20059;-78
2022/12/03 01:16:33;;;;;;;28.90;15.55;;;;;;;3.84;72.35;96736.94;5110726;28;20138;-79
2022/12/03 01:19:14;;;;;;;29.70;15.13;;;;;;;3.86;72.40;96740.19;5111788;28;20139;-78
2022/12/03 01:21:43;;;;;;;29.60;15.77;;;;;;;3.87;72.25;96738.44;5112619;28;20088;-77
2022/12/03 01:24:10;;;;;;;29.30;14.45;;;;;;;3.87;72.96;96726.38;5112538;28;20488;-78
2022/12/03 01:26:39;;;;;;;28.83;15.07;;;;;;;3.89;73.08;96731.38;5110765;28;20059;-79
2022/12/03 01:29:06;;;;;;;27.95;15.75;;;;;;;3.90;72.66;96736.41;5110245;28;20058;-78
2022/12/03 01:34:22;;;;;;;28.70;15.18;;;;;;;3.93;72.75;96732.72;5072037;27;20051;-78
2022/12/03 01:36:52;;;;;;;31.63;15.23;;;;;;;3.97;72.83;96734.09;5112396;28;20079;-78
2022/12/03 01:39:21;;;;;;;27.80;15.70;;;;;;;3.99;72.38;96739.94;5110342;28;20046;-78
2022/12/03 01:41:51;;;;;;;28.42;16.88;;;;;;;4.02;72.69;96738.84;5110776;28;20048;-79
2022/12/03 01:44:23;;;;;;;27.05;14.88;;;;;;;4.00;72.77;96736.41;5110444;28;20052;-78
2022/12/03 01:46:52;;;;;;;30.35;16.73;;;;;;;4.02;72.49;96728.50;5110392;28;20425;-78
2022/12/03 01:49:26;;;;;;;27.10;15.15;;;;;;;4.03;72.35;96733.53;5110534;28;20043;-78
2022/12/03 01:52:00;;;;;;;36.92;18.20;;;;;;;4.04;72.47;96731.78;5111187;28;20532;-78
2022/12/03 01:54:32;;;;;;;29.67;15.20;;;;;;;4.04;72.31;96727.41;5112378;28;20048;-78
2022/12/03 01:57:00;;;;;;;;;;;;;;;4.07;72.47;96724.56;5112614;28;20048;-78
2022/12/03 01:59:44;;;;;;;28.90;16.35;;;;;;;4.08;72.64;96735.72;5111894;28;19942;-78
2022/12/03 02:02:13;;;;;;;29.90;16.10;;;;;;;4.09;72.25;96734.78;5110767;28;20047;-78
2022/12/03 02:04:43;;;;;;;29.50;15.30;;;;;;;4.07;72.47;96737.47;5112206;28;20142;-78
2022/12/03 02:07:19;;;;;;;32.15;16.48;;;;;;;4.08;72.30;96733.94;5112052;28;20047;-78
2022/12/03 02:09:48;;;;;;;31.25;16.33;;;;;;;4.07;71.91;96729.75;5111586;28;20040;-78
2022/12/03 02:12:19;;;;;;;32.05;16.45;;;;;;;4.06;72.22;96741.00;5112029;28;20051;-78
2022/12/03 02:14:47;;;;;;;29.05;16.33;;;;;;;4.06;72.32;96725.50;5113213;28;20051;-78
2022/12/03 02:17:15;;;;;;;29.90;16.20;;;;;;;4.06;72.15;96730.69;5112836;28;20051;-78
2022/12/03 02:19:44;;;;;;;29.15;15.90;;;;;;;4.06;72.01;96725.50;5112237;28;20047;-79
2022/12/03 02:22:24;;;;;;;29.38;16.60;;;;;;;4.05;72.54;96731.66;5114358;28;20425;-78
2022/12/03 02:24:58;;;;;;;29.48;15.80;;;;;;;4.06;72.48;96735.03;5115731;28;20517;-78
2022/12/03 02:27:29;;;;;;;27.25;15.00;;;;;;;4.07;72.00;96737.47;5115936;28;20043;-78
2022/12/03 02:29:57;;;;;;;30.88;16.85;;;;;;;4.08;72.52;96733.94;5115363;28;20138;-79
2022/12/03 02:32:25;;;;;;;28.63;15.50;;;;;;;4.08;71.92;96728.78;5115557;28;20138;-78
2022/12/03 02:34:53;;;;;;;28.40;15.32;;;;;;;4.07;72.11;96732.31;5115430;28;20055;-78
2022/12/03 02:37:24;;;;;;;26.80;15.40;;;;;;;4.11;72.59;96735.41;5115657;28;20044;-78
2022/12/03 02:39:56;;;;;;;30.30;16.75;;;;;;;4.13;72.33;96729.19;5115358;28;20040;-78
2022/12/03 02:45:15;;;;;;;24.65;15.05;;;;;;;4.14;72.11;96732.59;5102273;28;20048;-78
2022/12/03 02:47:46;;;;;;;23.75;13.45;;;;;;;4.16;72.73;96728.09;5116559;28;20055;-78
2022/12/03 02:50:16;;;;;;;28.92;15.68;;;;;;;4.20;72.85;96736.38;5115930;28;20047;-78
2022/12/03 02:52:46;;;;;;;30.92;16.02;;;;;;;4.24;72.31;96732.56;5116015;28;20082;-78
2022/12/03 02:55:15;;;;;;;28.55;15.32;;;;;;;4.26;71.58;96730.66;5116000;28;20054;-78
2022/12/03 02:57:44;;;;;;;28.92;16.63;;;;;;;4.27;71.70;96727.94;5115336;28;20504;-78
2022/12/03 03:00:15;;;;;;;29.05;15.27;;;;;;;4.29;71.19;96735.56;5128044;28;20056;-78
2022/12/03 03:02:45;;;;;;;31.23;16.13;;;;;;;4.31;71.26;96731.88;5139268;28;20073;-79
2022/12/03 03:05:18;;;;;;;29.15;15.82;;;;;;;4.33;70.79;96732.56;5136307;28;20138;-78
2022/12/03 03:07:57;;;;;;;32.22;17.20;;;;;;;4.30;71.26;96743.16;5115387;28;20052;-78
2022/12/03 03:10:29;;;;;;;38.50;17.88;;;;;;;4.27;70.76;96740.84;5116521;28;20047;-78
2022/12/03 03:13:06;;;;;;;36.70;18.27;;;;;;;4.24;71.24;96737.72;5115079;28;20130;-78
2022/12/03 03:15:36;;;;;;;34.60;18.25;;;;;;;4.22;71.42;96742.19;5115924;28;20047;-79
2022/12/03 03:18:04;;;;;;;32.88;17.92;;;;;;;4.22;71.26;96740.47;5115300;28;20259;-79
2022/12/03 03:20:31;;;;;;;32.95;17.23;;;;;;;4.21;71.18;96740.59;5114805;28;20040;-78
2022/12/03 03:23:06;;;;;;;33.28;17.77;;;;;;;4.21;71.36;96743.16;5114832;28;20051;-78
2022/12/03 03:25:34;;;;;;;31.23;17.67;;;;;;;4.24;71.55;96737.72;5115251;28;20048;-79
2022/12/03 03:28:01;;;;;;;32.60;15.93;;;;;;;4.25;71.15;96739.38;5115295;28;20534;-78
2022/12/03 03:30:29;;;;;;;34.63;18.23;;;;;;;4.26;71.30;96728.06;5115425;28;20051;-79
2022/12/03 03:32:58;;;;;;;33.85;18.10;;;;;;;4.25;71.35;96732.44;5115166;28;20054;-78
2022/12/03 03:35:26;;;;;;;31.67;15.85;;;;;;;4.25;71.11;96735.00;5115204;28;20056;-78
2022/12/03 03:37:54;;;;;;;29.95;18.20;;;;;;;4.24;71.26;96728.22;5115056;28;20071;-79
2022/12/03 03:40:24;;;;;;;30.02;17.27;;;;;;;4.27;70.95;96724.56;5115222;28;20066;-78
2022/12/03 03:42:52;;;;;;;30.70;17.73;;;;;;;4.28;70.82;96726.16;5115765;28;20043;-78
2022/12/03 03:45:20;;;;;;;31.70;17.10;;;;;;;4.30;70.76;96721.69;5115308;28;20111;-78
2022/12/03 03:47:59;;;;;;;34.83;19.60;;;;;;;4.29;70.78;96725.22;5114733;28;20066;-78
2022/12/03 03:50:30;;;;;;;32.92;18.17;;;;;;;4.28;70.70;96726.97;5115350;28;20503;-78
2022/12/03 03:52:59;;;;;;;32.22;16.88;;;;;;;4.29;70.79;96725.22;5114708;28;20043;-78
2022/12/03 03:55:27;;;;;;;29.63;17.33;;;;;;;4.27;70.55;96720.19;5114094;28;20050;-78
2022/12/03 03:57:55;;;;;;;29.63;18.08;;;;;;;4.27;70.60;96719.38;5114286;28;20040;-78
2022/12/03 04:00:23;;;;;;;30.25;16.60;;;;;;;4.28;70.85;96723.59;5114417;28;20130;-78
2022/12/03 04:02:52;;;;;;;31.73;18.15;;;;;;;4.30;70.97;96724.25;5114078;28;20040;-78
2022/12/03 04:05:23;;;;;;;32.33;16.98;;;;;;;4.32;70.66;96719.78;5113699;28;20520;-78
2022/12/03 04:07:50;;;;;;;30.95;17.65;;;;;;;4.34;70.17;96717.88;5113428;28;20051;-78
2022/12/03 04:13:00;;;;;;;28.80;16.67;;;;;;;4.31;69.88;96713.00;5112732;28;20044;-78
2022/12/03 04:15:28;;;;;;;30.15;17.35;;;;;;;4.28;69.88;96713.25;5113577;28;20054;-78
2022/12/03 04:20:42;;;;;;;30.75;17.27;;;;;;;4.24;69.59;96711.91;5113759;28;20047;-79
2022/12/03 04:23:09;;;;;;;27.05;17.02;;;;;;;4.22;69.72;96713.81;5113404;28;20478;-78
2022/12/03 04:36:35;;;;;;;25.25;14.70;;;;;;;3.96;69.72;96719.56;5113974;28;20043;-78
2022/12/03 04:39:03;;;;;;;26.17;14.80;;;;;;;3.95;70.22;96722.28;5113678;28;20051;-78
2022/12/03 04:41:31;;;;;;;26.70;15.38;;;;;;;3.93;69.99;96712.09;5113868;28;20046;-78
2022/12/03 04:46:44;;;;;;;25.90;15.27;;;;;;;3.97;70.65;96721.19;5114834;28;20513;-78
2022/12/03 04:49:11;;;;;;;27.60;15.52;;;;;;;4.00;70.52;96720.94;5114106;28;20135;-79
2022/12/03 04:51:41;;;;;;;27.65;16.17;;;;;;;4.02;70.11;96716.41;5113545;28;20044;-78
2022/12/03 04:54:08;;;;;;;28.25;16.98;;;;;;;4.05;70.05;96717.94;5113654;28;20039;-78
2022/12/03 04:56:36;;;;;;;28.35;15.20;;;;;;;4.05;69.85;96713.56;5113734;28;20047;-78
2022/12/03 04:59:04;;;;;;;27.13;16.05;;;;;;;4.04;69.92;96711.13;5113878;28;20052;-78
2022/12/03 05:01:31;;;;;;;30.05;17.13;;;;;;;4.04;69.96;96711.94;5113868;28;20051;-78
2022/12/03 05:03:59;;;;;;;29.10;16.83;;;;;;;4.05;70.15;96718.75;5113715;28;20658;-78
2022/12/03 05:06:27;;;;;;;28.75;17.15;;;;;;;4.04;69.91;96717.09;5108764;28;20043;-77
2022/12/03 05:08:56;;;;;;;27.35;15.63;;;;;;;4.04;70.23;96717.09;5092145;28;20044;-78
2022/12/03 05:11:23;;;;;;;24.90;15.35;;;;;;;4.04;69.61;96717.09;5092580;28;20040;-78
2022/12/03 05:13:51;;;;;;;24.50;16.42;;;;;;;4.07;69.95;96716.84;5100229;28;20050;-78
2022/12/03 05:16:19;;;;;;;25.80;15.05;;;;;;;4.09;70.13;96721.88;5099924;28;20048;-78
2022/12/03 05:18:46;;;;;;;27.77;15.77;;;;;;;4.09;69.42;96716.69;5093196;28;20059;-78
2022/12/03 05:21:13;;;;;;;25.63;14.77;;;;;;;4.06;69.27;96715.19;5099714;28;20497;-78
2022/12/03 05:23:41;;;;;;;22.65;14.48;;;;;;;4.07;69.08;96719.41;5093047;28;20047;-79
2022/12/03 05:26:10;;;;;;;22.17;13.65;;;;;;;4.07;69.90;96716.84;5101619;28;20052;-79
2022/12/03 05:28:37;;;;;;;21.20;13.27;;;;;;;4.08;69.39;96713.28;5098571;28;20048;-80
2022/12/03 05:31:05;;;;;;;20.88;12.35;;;;;;;4.09;69.00;96709.78;5115157;28;20049;-79
2022/12/03 05:33:33;;;;;;;21.88;12.77;;;;;;;4.07;68.61;96706.50;5100981;28;20082;-80
2022/12/03 05:36:10;;;;;;;22.27;14.10;;;;;;;4.05;68.97;96715.34;5093570;28;20131;-81
2022/12/03 05:38:38;;;;;;;24.17;14.70;;;;;;;4.05;68.84;96711.00;5111699;28;20058;-80
2022/12/03 05:42:52;;;;;;;21.15;13.52;;;;;;;4.05;68.51;96713.56;5112914;28;20066;-79
2022/12/03 05:43:54;;;;;;;18.75;12.23;;;;;;;4.02;68.47;96700.94;5080784;28;20044;-79
2022/12/03 05:46:26;;;;;;;20.58;13.35;;;;;;;4.00;68.44;96705.44;5094318;28;20052;-79
2022/12/03 05:49:01;;;;;;;20.27;12.68;;;;;;;3.99;68.39;96703.78;5076688;28;20059;-80
2022/12/03 05:51:28;;;;;;;19.95;12.63;;;;;;;3.97;68.96;96703.13;5075764;28;20044;-79
2022/12/03 05:54:10;;;;;;;18.75;12.55;;;;;;;3.94;68.86;96703.41;5109338;28;20051;-80
2022/12/03 05:56:50;;;;;;;21.17;12.45;;;;;;;3.92;68.70;96705.31;5077277;28;20056;-80
2022/12/03 05:59:41;;;;;;;17.55;11.18;;;;;;;3.90;68.39;96709.78;5076576;28;20052;-80
2022/12/03 06:02:22;;;;;;;19.38;12.40;;;;;;;3.87;68.33;96715.19;5069883;28;20057;-80
2022/12/03 06:05:07;;;;;;;18.85;12.90;;;;;;;3.79;68.11;96717.69;5075748;28;20076;-80
2022/12/03 06:07:48;;;;;;;22.58;12.95;;;;;;;3.73;68.50;96713.88;5075891;28;20427;-80
2022/12/03 06:10:23;;;;;;;20.52;12.52;;;;;;;3.72;69.42;96718.22;5078696;28;20418;-80
2022/12/03 06:13:05;;;;;;;22.63;13.55;;;;;;;3.76;68.81;96707.59;5078294;28;20056;-80
2022/12/03 06:15:38;;;;;;;24.27;14.80;;;;;;;3.75;68.38;96711.16;5100013;22;20548;-76
2022/12/03 06:18:10;;;;;;;24.73;14.98;;;;;;;3.72;68.79;96718.22;5095381;28;20052;-77
2022/12/03 06:20:38;;;;;;;24.58;14.27;;;;;;;3.67;68.91;96715.25;5096344;28;20341;-76
2022/12/03 06:23:05;;;;;;;26.30;16.27;;;;;;;3.66;68.94;96711.00;5096340;28;20048;-76
2022/12/03 06:25:33;;;;;;;25.23;14.82;;;;;;;3.65;69.25;96709.41;5095993;28;20047;-76
2022/12/03 06:28:00;;;;;;;29.33;16.00;;;;;;;3.65;69.45;96706.81;5096800;28;20058;-76
2022/12/03 06:30:28;;;;;;;28.52;16.35;;;;;;;3.64;69.08;96718.06;5096124;28;20055;-76
2022/12/03 06:32:57;;;;;;;28.50;16.48;;;;;;;3.60;69.25;96713.31;5095928;28;20052;-76
2022/12/03 06:35:24;;;;;;;25.52;15.27;;;;;;;3.56;69.17;96710.19;5095506;28;20048;-76
2022/12/03 06:37:52;;;;;;;24.02;15.23;;;;;;;3.54;68.97;96717.25;5095377;28;20052;-76
2022/12/03 06:40:20;;;;;;;24.73;14.02;;;;;;;3.50;69.17;96713.31;5096035;28;20052;-76
2022/12/03 06:42:47;;;;;;;22.27;15.10;;;;;;;3.46;69.18;96722.28;5095656;28;20051;-77
2022/12/03 06:45:15;;;;;;;23.15;13.38;;;;;;;3.43;69.25;96727.69;5095722;28;20055;-76
2022/12/03 06:47:44;;;;;;;22.50;14.07;;;;;;;3.41;69.00;96737.31;5095582;28;20051;-77
2022/12/03 06:50:13;;;;;;;22.70;14.45;;;;;;;3.39;69.00;96750.38;5095583;28;20467;-77
2022/12/03 06:52:41;;;;;;;23.05;14.25;;;;;;;3.40;69.68;96748.59;5095166;28;20052;-76
2022/12/03 06:55:09;;;;;;;28.88;17.00;;;;;;;3.42;70.08;96749.28;5095195;28;20044;-76
2022/12/03 06:57:37;;;;;;;26.88;15.73;;;;;;;3.42;69.92;96757.00;5095697;28;20055;-77
2022/12/03 07:00:07;;;;;;;28.17;16.92;;;;;;;3.40;69.91;96754.56;5095167;28;20048;-76
2022/12/03 07:02:35;;;;;;;26.23;15.85;;;;;;;3.38;69.60;96753.06;5095342;28;20044;-76
2022/12/03 07:05:03;;;;;;;26.23;16.17;;;;;;;3.35;70.16;96756.72;5095523;28;20504;-76
2022/12/03 07:07:32;;;;;;;30.25;17.65;;;;;;;3.34;70.44;96752.50;5094938;28;20052;-76
2022/12/03 07:10:00;;;;;;;31.92;18.23;;;;;;;3.35;70.33;96748.19;5094689;28;20040;-76
2022/12/03 07:12:27;;;;;;;27.05;15.98;;;;;;;3.36;71.09;96744.66;5094992;28;20055;-76
2022/12/03 07:14:55;;;;;;;29.48;17.20;;;;;;;3.38;70.87;96753.06;5095377;28;20052;-76
2022/12/03 07:17:23;;;;;;;28.65;16.48;;;;;;;3.38;70.31;96746.13;5094679;28;20105;-76
2022/12/03 07:19:50;;;;;;;28.52;16.08;;;;;;;3.40;70.70;96748.59;5094915;28;20056;-76
2022/12/03 07:22:18;;;;;;;24.45;14.65;;;;;;;3.36;70.58;96753.19;5099824;28;20052;-77
2022/12/03 07:24:47;;;;;;;29.52;16.05;;;;;;;3.33;69.93;96752.66;5105525;28;20052;-77
2022/12/03 07:27:14;;;;;;;25.00;15.65;;;;;;;3.28;69.64;96750.47;5100095;28;20056;-76
2022/12/03 07:29:42;;;;;;;25.63;14.73;;;;;;;3.25;69.65;96754.13;5095143;28;20055;-76
2022/12/03 07:32:09;;;;;;;28.40;16.02;;;;;;;3.20;70.47;96764.03;5094954;28;20047;-76
2022/12/03 07:34:37;;;;;;;24.55;14.45;;;;;;;3.14;70.01;96758.56;5094786;28;20059;-76
2022/12/03 07:37:04;;;;;;;30.13;15.40;;;;;;;3.03;69.94;96746.59;5095013;28;20051;-76
2022/12/03 07:39:32;;;;;;;26.40;14.57;;;;;;;2.99;70.24;96734.91;5094615;28;20059;-76
2022/12/03 07:42:01;;;;;;;27.83;15.85;;;;;;;2.95;70.34;96747.28;5094763;28;20055;-77
2022/12/03 07:44:30;;;;;;;30.50;17.08;;;;;;;2.93;70.55;96745.75;5094561;28;20051;-77
2022/12/03 07:46:58;;;;;;;28.40;16.23;;;;;;;2.93;70.49;96745.75;5094159;28;20044;-76
2022/12/03 07:49:26;;;;;;;30.17;17.13;;;;;;;2.93;71.00;96741.44;5093963;28;20048;-76
2022/12/03 07:51:53;;;;;;;29.55;16.70;;;;;;;2.96;71.25;96741.16;5094078;28;20054;-77
2022/12/03 07:54:21;;;;;;;27.70;15.40;;;;;;;2.98;70.87;96739.28;5094706;28;20249;-76
2022/12/03 07:56:49;;;;;;;33.40;17.83;;;;;;;3.00;70.98;96734.00;5094252;28;20055;-76
2022/12/03 07:59:18;;;;;;;35.15;18.95;;;;;;;2.99;70.71;96722.84;5093973;28;20056;-76
2022/12/03 08:01:46;;;;;;;31.40;16.52;;;;;;;3.00;70.99;96721.91;5094218;28;20048;-76
2022/12/03 08:04:17;;;;;;;34.30;18.45;;;;;;;3.06;71.23;96720.56;5094181;28;20417;-77
2022/12/03 08:06:45;;;;;;;32.90;17.23;;;;;;;3.06;70.96;96716.25;5094316;28;20056;-76
2022/12/03 08:09:13;;;;;;;29.17;15.50;;;;;;;3.08;71.24;96716.94;5093879;28;20113;-76
2022/12/03 08:11:44;;;;;;;24.77;14.88;;;;;;;3.11;71.41;96718.41;5099696;28;20044;-76
2022/12/03 08:14:30;;;;;;;27.17;14.90;;;;;;;3.12;71.04;96720.03;5091485;28;20086;-76
2022/12/03 08:16:58;;;;;;;27.25;14.20;;;;;;;3.12;71.33;96717.47;5114389;28;20036;-76
2022/12/03 08:19:26;;;;;;;26.63;14.90;;;;;;;3.13;71.65;96721.69;5104122;28;20140;-76
2022/12/03 08:21:54;;;;;;;26.85;13.88;;;;;;;3.16;71.23;96715.44;5094962;28;20060;-76
2022/12/03 08:24:28;;;;;;;25.73;14.55;;;;;;;3.19;71.57;96717.75;5094938;28;20051;-77
2022/12/03 08:26:57;;;;;;;25.38;14.45;;;;;;;3.20;71.04;96715.03;5094184;28;20462;-76
2022/12/03 08:29:24;;;;;;;24.85;14.85;;;;;;;3.21;70.65;96713.28;5094037;28;20497;-76
2022/12/03 08:31:55;;;;;;;30.25;15.38;;;;;;;3.18;70.53;96708.38;5093773;28;20077;-77
2022/12/03 08:34:26;;;;;;;24.38;14.02;;;;;;;3.19;71.08;96718.56;5093622;28;20051;-77
2022/12/03 08:37:00;;;;;;;105.32;55.42;;;;;;;3.21;71.78;96718.44;5093791;28;20425;-76
2022/12/03 08:39:32;;;;;;;46.10;22.30;;;;;;;3.24;71.94;96734.47;5093144;28;20070;-76
2022/12/03 08:44:56;;;;;;;27.33;16.10;;;;;;;3.28;71.24;96735.81;5093591;28;20047;-76
2022/12/03 08:47:25;;;;;;;25.08;14.85;;;;;;;3.27;70.84;96731.59;5093481;28;20047;-77
2022/12/03 08:49:56;;;;;;;30.42;15.35;;;;;;;3.30;71.62;96733.09;5093368;28;20040;-76
2022/12/03 08:52:31;;;;;;;29.25;15.32;;;;;;;3.34;71.07;96738.81;5093376;28;20052;-76
2022/12/03 08:55:02;;;;;;;27.90;15.00;;;;;;;3.35;71.18;96735.28;5093400;28;20493;-77
2022/12/03 08:57:31;;;;;;;28.60;14.95;;;;;;;3.32;70.54;96735.53;5093270;28;20527;-76
2022/12/03 09:00:21;;;;;;;28.20;15.57;;;;;;;3.27;70.78;96733.38;5092768;28;20051;-76
2022/12/03 09:02:52;;;;;;;26.92;14.57;;;;;;;3.21;70.74;96737.28;5093524;28;20425;-76
2022/12/03 09:05:22;;;;;;;29.17;15.18;;;;;;;3.13;70.68;96734.56;5093040;28;20314;-76
2022/12/03 09:07:49;;;;;;;28.27;14.73;;;;;;;3.08;70.97;96744.44;5092758;28;20053;-76
2022/12/03 09:10:18;;;;;;;31.35;16.60;;;;;;;3.05;70.83;96742.13;5092967;28;20444;-77
2022/12/03 09:12:46;;;;;;;29.25;15.13;;;;;;;3.01;70.71;96743.34;5092968;28;20070;-76
2022/12/03 09:15:13;;;;;;;29.70;15.15;;;;;;;2.95;70.95;96741.28;5092975;28;20055;-76
2022/12/03 09:17:41;;;;;;;30.58;16.30;;;;;;;2.92;71.17;96744.94;5092759;28;20513;-76
2022/12/03 09:20:11;;;;;;;28.73;16.38;;;;;;;2.91;71.64;96734.75;5092766;28;20053;-76
2022/12/03 09:22:38;;;;;;;32.40;16.85;;;;;;;2.87;71.71;96732.44;5092829;28;20040;-76
2022/12/03 09:25:07;;;;;;;34.85;16.95;;;;;;;2.89;71.71;96730.56;5092644;28;20085;-76
2022/12/03 09:27:35;;;;;;;31.63;15.85;;;;;;;2.92;71.85;96714.03;5092753;28;20048;-76
2022/12/03 09:30:03;;;;;;;30.73;14.27;;;;;;;2.94;71.47;96698.44;5093145;28;20468;-76
2022/12/03 09:32:31;;;;;;;26.77;14.65;;;;;;;2.97;71.61;96700.72;5096988;28;20044;-76
2022/12/03 09:34:58;;;;;;;32.42;15.85;;;;;;;2.99;72.16;96704.00;5097135;28;20501;-76
2022/12/03 09:37:27;;;;;;;32.40;15.82;;;;;;;3.00;71.65;96695.34;5096981;28;20075;-76
2022/12/03 09:39:55;;;;;;;31.35;16.63;;;;;;;3.01;71.88;96692.59;5096249;28;20056;-76
2022/12/03 09:42:23;;;;;;;35.10;16.92;;;;;;;3.03;71.99;96689.91;5096779;28;20044;-77
2022/12/03 09:44:50;;;;;;;32.80;16.00;;;;;;;3.04;71.58;96699.25;5096947;28;20051;-76
2022/12/03 09:47:18;;;;;;;28.98;15.10;;;;;;;3.03;71.73;96690.72;5096753;28;20079;-76
2022/12/03 09:49:46;;;;;;;29.05;14.93;;;;;;;3.02;71.72;96696.03;5096550;28;20048;-76
2022/12/03 09:52:27;;;;;;;30.98;16.20;;;;;;;3.02;71.86;96714.88;5096546;28;20135;-76
2022/12/03 09:54:56;;;;;;;30.00;15.90;;;;;;;3.03;71.56;96718.25;5096781;28;20052;-76
2022/12/03 09:57:24;;;;;;;33.08;16.02;;;;;;;3.02;71.96;96719.22;5096696;28;20468;-76
2022/12/03 09:59:52;;;;;;;31.17;15.38;;;;;;;3.05;71.43;96722.31;5096529;28;20074;-76
2022/12/03 10:02:24;;;;;;;30.77;15.70;;;;;;;3.03;71.23;96736.28;5096827;28;20044;-77
2022/12/03 10:04:53;;;;;;;31.70;14.80;;;;;;;3.00;71.88;96723.69;5096442;28;20059;-77
2022/12/03 10:07:21;;;;;;;33.83;15.30;;;;;;;3.00;71.91;96728.84;5107935;28;20044;-76
2022/12/03 10:09:49;;;;;;;29.58;15.45;;;;;;;3.01;71.73;96722.72;5104408;28;20044;-76
2022/12/03 10:12:23;;;;;;;28.60;14.05;;;;;;;3.00;71.93;96716.75;5096878;28;20048;-76
2022/12/03 10:14:52;;;;;;;28.73;14.70;;;;;;;3.01;71.99;96726.09;5096424;28;20044;-76
2022/12/03 10:17:20;;;;;;;32.08;16.52;;;;;;;3.01;71.96;96717.56;5095893;28;20051;-76
2022/12/03 10:19:48;;;;;;;28.08;14.60;;;;;;;3.00;71.72;96715.94;5096262;28;20048;-76
2022/12/03 10:22:15;;;;;;;26.75;13.68;;;;;;;3.01;72.22;96712.41;5096626;28;20119;-76
2022/12/03 10:24:43;;;;;;;31.75;14.45;;;;;;;3.02;71.68;96712.28;5096019;28;20401;-76
2022/12/03 10:27:23;;;;;;;27.58;13.65;;;;;;;3.05;72.08;96714.59;5096161;28;20052;-76
2022/12/03 10:29:56;;;;;;;29.20;13.63;;;;;;;3.07;71.42;96712.69;5095866;28;20048;-76
2022/12/03 10:32:26;;;;;;;29.38;14.35;;;;;;;3.07;71.45;96701.59;5096169;28;20059;-76
2022/12/03 10:35:07;;;;;;;31.73;14.85;;;;;;;3.02;71.75;96689.09;5095742;28;20052;-76
2022/12/03 10:37:35;;;;;;;33.22;14.73;;;;;;;3.00;71.28;96679.88;5095756;28;20048;-77
2022/12/03 10:40:07;;;;;;;30.05;14.00;;;;;;;2.99;71.63;96688.53;5095614;28;20051;-76
2022/12/03 10:42:38;;;;;;;24.65;12.30;;;;;;;2.98;71.70;96686.91;5095070;28;20139;-76
2022/12/03 10:45:09;;;;;;;27.73;13.93;;;;;;;2.93;71.53;96683.91;5095640;28;20058;-76
2022/12/03 10:47:36;;;;;;;27.27;12.85;;;;;;;2.94;72.21;96686.34;5095801;28;20467;-76
2022/12/03 10:50:13;;;;;;;24.92;12.75;;;;;;;2.94;71.93;96682.97;5095551;28;20048;-77
2022/12/03 10:52:41;;;;;;;29.33;14.27;;;;;;;2.93;71.49;96681.34;5095182;28;20056;-76
2022/12/03 10:55:10;;;;;;;31.05;14.80;;;;;;;2.89;71.41;96668.72;5095532;28;20425;-76
2022/12/03 10:57:40;;;;;;;30.05;14.68;;;;;;;2.88;71.51;96671.41;5095324;28;20056;-76
2022/12/03 11:00:16;;;;;;;28.10;13.27;;;;;;;2.87;71.36;96660.31;5095681;28;20513;-76
2022/12/03 11:02:44;;;;;;;26.13;12.52;;;;;;;2.87;71.79;96654.34;5095603;28;20056;-77
2022/12/03 11:05:15;;;;;;;26.55;12.43;;;;;;;2.89;71.75;96655.03;5095275;28;20052;-76
2022/12/03 11:07:44;;;;;;;24.65;12.27;;;;;;;2.92;72.05;96646.22;5095244;28;20437;-76
2022/12/03 11:10:16;;;;;;;28.25;13.63;;;;;;;2.96;71.91;96647.59;5095296;28;20052;-76
2022/12/03 11:13:26;;;;;;;29.05;12.70;;;;;;;2.97;71.57;96644.03;5095280;28;20056;-76
2022/12/03 11:15:54;;;;;;;26.83;12.02;;;;;;;2.98;71.57;96640.53;5095141;28;20048;-76
2022/12/03 11:18:59;;;;;;;22.27;11.68;;;;;;;3.01;71.36;96637.69;5095010;28;20048;-76
2022/12/03 11:21:27;;;;;;;23.85;11.65;;;;;;;3.04;71.71;96634.81;5095111;28;20047;-76
2022/12/03 11:24:14;;;;;;;24.40;12.38;;;;;;;3.06;73.32;96633.78;5095007;28;20117;-76
2022/12/03 11:27:24;;;;;;;23.58;11.55;;;;;;;3.09;71.66;96627.53;5094909;28;20505;-77
2022/12/03 11:29:57;;;;;;;26.10;12.52;;;;;;;3.09;71.53;96633.50;5094813;28;20052;-77
2022/12/03 11:33:03;;;;;;;25.90;14.10;;;;;;;3.08;71.34;96629.28;5095073;28;20059;-76
2022/12/03 11:36:06;;;;;;;25.40;12.38;;;;;;;3.07;71.69;96622.50;5064551;28;20055;-76
2022/12/03 11:38:55;;;;;;;23.55;11.60;;;;;;;3.08;71.77;96626.72;5075323;28;20056;-76
2022/12/03 11:41:26;;;;;;;25.77;13.75;;;;;;;3.04;71.37;96619.38;5094909;28;20040;-76
2022/12/03 11:44:25;;;;;;;24.50;12.98;;;;;;;3.05;71.66;96615.84;5094784;28;20403;-76
2022/12/03 11:46:55;;;;;;;27.17;13.55;;;;;;;3.06;71.32;96627.78;5094563;28;20520;-76
2022/12/03 11:49:35;;;;;;;27.90;15.20;;;;;;;3.04;71.59;96625.34;5094148;28;20056;-76
2022/12/03 11:52:18;;;;;;;27.92;13.40;;;;;;;3.03;71.67;96630.63;5102405;28;20044;-76
2022/12/03 11:54:47;;;;;;;;;;;;;;;3.03;71.13;96630.63;5112123;28;20048;-76
2022/12/03 11:57:26;;;;;;;23.90;10.85;;;;;;;2.98;71.34;96630.22;5095734;28;19920;-76
2022/12/03 12:00:04;;;;;;;25.35;12.60;;;;;;;2.94;71.20;96629.66;5094415;28;20055;-76
2022/12/03 12:02:33;;;;;;;18.70;10.20;;;;;;;2.92;71.10;96621.25;5094416;28;20054;-76
2022/12/03 12:05:32;;;;;;;24.30;11.00;;;;;;;2.93;71.29;96616.91;5094161;28;20048;-76
2022/12/03 12:08:01;;;;;;;21.48;10.95;;;;;;;2.92;71.21;96613.53;5083635;28;20397;-76
2022/12/03 12:10:40;;;;;;;21.67;10.88;;;;;;;2.89;71.11;96612.03;5094232;28;20510;-76
2022/12/03 12:13:25;;;;;;;20.58;10.05;;;;;;;2.88;71.55;96609.59;5094400;28;20050;-76